createdAt,value
2018-12-01T00:00:23.292Z,31.57
2018-12-01T00:02:52.091Z,30.20
2018-12-01T00:05:20.710Z,33.07
2018-12-01T00:07:49.864Z,31.57
2018-12-01T00:10:18.537Z,30.87
2018-12-01T00:12:47.182Z,31.57
2018-12-01T00:15:17.323Z,30.70
2018-12-01T00:17:46.010Z,31.20
2018-12-01T00:20:16.852Z,32.63
2018-12-01T00:22:45.523Z,30.07
2018-12-01T00:25:14.126Z,31.57
2018-12-01T00:27:42.715Z,33.07
2018-12-01T00:30:15.439Z,34.77
2018-12-01T00:32:44.631Z,32.67
2018-12-01T00:35:13.567Z,31.40
2018-12-01T00:37:42.189Z,29.60
2018-12-01T00:40:19.123Z,29.17
2018-12-01T00:42:47.891Z,33.53
2018-12-01T00:45:21.224Z,31.53
2018-12-01T00:47:50.870Z,32.20
2018-12-01T00:50:20.537Z,33.20
2018-12-01T00:52:49.851Z,31.47
2018-12-01T00:55:19.118Z,31.30
2018-12-01T00:57:47.800Z,31.40
2018-12-01T01:00:22.892Z,32.53
2018-12-01T01:02:53.907Z,31.33
2018-12-01T01:05:23.371Z,32.77
2018-12-01T01:07:52.036Z,30.07
2018-12-01T01:10:21.567Z,31.67
2018-12-01T01:12:50.250Z,30.27
2018-12-01T01:15:18.868Z,32.13
2018-12-01T01:17:47.486Z,33.37
2018-12-01T01:20:17.028Z,30.33
2018-12-01T01:22:46.031Z,31.70
2018-12-01T01:25:14.991Z,30.17
2018-12-01T01:27:43.708Z,30.57
2018-12-01T01:30:15.224Z,32.07
2018-12-01T01:32:43.919Z,31.37
2018-12-01T01:35:12.739Z,32.97
2018-12-01T01:37:41.420Z,33.00
2018-12-01T01:40:14.877Z,30.80
2018-12-01T01:42:43.557Z,32.57
2018-12-01T01:45:15.212Z,32.47
2018-12-01T01:47:43.861Z,35.40
2018-12-01T01:50:14.376Z,34.50
2018-12-01T01:52:43.029Z,34.07
2018-12-01T01:55:12.261Z,31.17
2018-12-01T01:57:41.091Z,31.70
2018-12-01T02:00:13.975Z,31.13
2018-12-01T02:02:44.819Z,32.07
2018-12-01T02:05:13.481Z,33.00
2018-12-01T02:07:42.140Z,32.47
2018-12-01T02:10:11.664Z,32.10
2018-12-01T02:12:40.284Z,31.67
2018-12-01T02:15:09.928Z,30.93
2018-12-01T02:17:38.557Z,33.30
2018-12-01T02:20:13.415Z,32.50
2018-12-01T02:22:42.073Z,30.50
2018-12-01T02:25:11.643Z,31.87
2018-12-01T02:27:40.308Z,31.57
2018-12-01T02:30:10.353Z,30.30
2018-12-01T02:32:39.010Z,30.37
2018-12-01T02:35:09.258Z,31.30
2018-12-01T02:37:38.069Z,32.77
2018-12-01T02:40:09.012Z,30.87
2018-12-01T02:42:37.673Z,29.97
2018-12-01T02:45:17.328Z,30.40
2018-12-01T02:47:46.059Z,30.90
2018-12-01T02:50:15.072Z,30.60
2018-12-01T02:52:43.783Z,31.10
2018-12-01T02:55:12.422Z,31.70
2018-12-01T02:57:41.023Z,30.30
2018-12-01T03:00:11.792Z,31.37
2018-12-01T03:02:40.442Z,31.10
2018-12-01T03:05:10.355Z,30.57
2018-12-01T03:07:38.975Z,31.80
2018-12-01T03:10:13.901Z,33.53
2018-12-01T03:12:42.546Z,32.43
2018-12-01T03:15:12.220Z,29.97
2018-12-01T03:17:40.935Z,31.93
2018-12-01T03:20:16.808Z,34.03
2018-12-01T03:22:45.448Z,33.07
2018-12-01T03:25:21.619Z,32.67
2018-12-01T03:27:52.703Z,30.23
2018-12-01T03:30:22.206Z,31.40
2018-12-01T03:32:51.761Z,31.40
2018-12-01T03:35:20.979Z,30.87
2018-12-01T03:37:50.083Z,28.13
2018-12-01T03:40:19.476Z,30.23
2018-12-01T03:42:48.239Z,32.33
2018-12-01T03:45:17.848Z,29.90
2018-12-01T03:47:46.521Z,31.90
2018-12-01T03:50:22.170Z,28.10
2018-12-01T03:52:51.874Z,28.03
2018-12-01T03:55:29.043Z,29.10
2018-12-01T03:57:57.786Z,29.43
2018-12-01T04:00:26.494Z,31.60
2018-12-01T04:02:56.103Z,28.87
2018-12-01T04:05:24.767Z,41.77
2018-12-01T04:07:53.579Z,32.93
2018-12-01T04:10:22.246Z,32.63
2018-12-01T04:12:51.012Z,31.20
2018-12-01T04:15:19.740Z,31.30
2018-12-01T04:17:48.520Z,28.90
2018-12-01T04:20:17.201Z,30.17
2018-12-01T04:22:45.814Z,27.67
2018-12-01T04:25:14.478Z,28.80
2018-12-01T04:27:43.143Z,29.13
2018-12-01T04:30:17.572Z,27.23
2018-12-01T04:32:46.346Z,28.40
2018-12-01T04:35:23.903Z,28.77
2018-12-01T04:37:54.460Z,29.90
2018-12-01T04:40:23.223Z,28.03
2018-12-01T04:42:52.655Z,27.60
2018-12-01T04:45:21.327Z,30.30
2018-12-01T04:47:49.973Z,27.83
2018-12-01T04:50:19.071Z,29.70
2018-12-01T04:52:48.551Z,29.33
2018-12-01T04:55:18.248Z,29.60
2018-12-01T04:57:46.916Z,27.77
2018-12-01T05:00:19.351Z,27.63
2018-12-01T05:02:48.105Z,28.30
2018-12-01T05:05:18.791Z,29.77
2018-12-01T05:07:47.468Z,27.93
2018-12-01T05:10:16.701Z,29.73
2018-12-01T05:12:45.364Z,30.53
2018-12-01T05:15:17.710Z,29.60
2018-12-01T05:17:46.539Z,29.43
2018-12-01T05:20:22.683Z,26.57
2018-12-01T05:22:52.054Z,28.43
2018-12-01T05:25:20.701Z,30.47
2018-12-01T05:27:49.341Z,27.87
2018-12-01T05:30:18.013Z,28.07
2018-12-01T05:32:56.951Z,26.83
2018-12-01T05:35:25.804Z,26.57
2018-12-01T05:37:54.466Z,28.03
2018-12-01T05:40:29.723Z,27.00
2018-12-01T05:42:58.367Z,28.43
2018-12-01T05:45:26.993Z,28.83
2018-12-01T05:47:55.628Z,28.30
2018-12-01T05:50:27.862Z,28.17
2018-12-01T05:52:57.305Z,28.73
2018-12-01T05:55:26.064Z,28.53
2018-12-01T05:57:54.727Z,27.57
2018-12-01T06:00:23.388Z,27.63
2018-12-01T06:02:52.012Z,28.53
2018-12-01T06:05:21.215Z,26.73
2018-12-01T06:07:50.170Z,27.87
2018-12-01T06:10:20.727Z,27.80
2018-12-01T06:12:50.269Z,28.50
2018-12-01T06:15:19.635Z,28.47
2018-12-01T06:17:48.248Z,28.70
2018-12-01T06:20:19.912Z,28.70
2018-12-01T06:22:48.523Z,31.13
2018-12-01T06:25:18.748Z,28.47
2018-12-01T06:27:47.396Z,27.17
2018-12-01T06:30:18.276Z,28.80
2018-12-01T06:32:47.699Z,31.00
2018-12-01T06:35:16.324Z,27.90
2018-12-01T06:37:45.002Z,28.93
2018-12-01T06:40:15.956Z,26.33
2018-12-01T06:42:44.652Z,27.07
2018-12-01T06:45:14.052Z,27.77
2018-12-01T06:47:42.805Z,26.13
2018-12-01T06:50:15.484Z,28.10
2018-12-01T06:52:44.599Z,27.33
2018-12-01T06:55:14.331Z,28.03
2018-12-01T06:57:43.777Z,27.80
2018-12-01T07:00:18.444Z,26.67
2018-12-01T07:02:47.719Z,26.53
2018-12-01T07:05:16.836Z,25.73
2018-12-01T07:07:45.451Z,26.37
2018-12-01T07:10:15.207Z,24.57
2018-12-01T07:12:46.217Z,24.37
2018-12-01T07:15:16.040Z,34.53
2018-12-01T07:17:44.730Z,38.63
2018-12-01T07:20:13.493Z,25.20
2018-12-01T07:24:06.023Z,120.20
2018-12-01T07:26:34.624Z,32.93
2018-12-01T07:29:03.570Z,25.20
2018-12-01T07:31:32.200Z,25.20
2018-12-01T07:34:00.879Z,25.80
2018-12-01T07:36:29.484Z,31.37
2018-12-01T07:38:58.111Z,26.97
2018-12-01T07:41:26.725Z,27.37
2018-12-01T07:43:55.339Z,26.27
2018-12-01T07:46:23.941Z,26.40
2018-12-01T07:48:52.563Z,28.30
2018-12-01T07:51:21.151Z,26.17
2018-12-01T07:53:49.773Z,25.87
2018-12-01T07:56:18.394Z,27.03
2018-12-01T07:58:47.063Z,27.47
2018-12-01T08:01:15.675Z,26.27
2018-12-01T08:03:44.315Z,26.30
2018-12-01T08:06:12.965Z,25.87
2018-12-01T08:08:41.575Z,26.20
2018-12-01T08:11:10.198Z,25.80
2018-12-01T08:13:38.996Z,26.23
2018-12-01T08:16:07.642Z,26.23
2018-12-01T08:18:36.260Z,24.80
2018-12-01T08:21:05.059Z,25.20
2018-12-01T08:23:33.700Z,24.77
2018-12-01T08:26:02.312Z,25.87
2018-12-01T08:28:31.164Z,23.97
2018-12-01T08:30:59.777Z,27.10
2018-12-01T08:33:28.412Z,28.20
2018-12-01T08:35:57.837Z,27.83
2018-12-01T08:38:25.746Z,26.60
2018-12-01T08:40:54.357Z,25.63
2018-12-01T08:43:22.983Z,23.97
2018-12-01T08:45:51.608Z,24.83
2018-12-01T08:48:20.241Z,24.03
2018-12-01T08:50:48.892Z,23.57
2018-12-01T08:53:17.524Z,23.27
2018-12-01T08:55:46.137Z,22.97
2018-12-01T08:58:14.748Z,23.83
2018-12-01T09:00:43.519Z,23.07
2018-12-01T09:03:15.623Z,24.30
2018-12-01T09:05:44.250Z,23.43
2018-12-01T09:08:12.890Z,25.20
2018-12-01T09:10:41.596Z,26.47
2018-12-01T09:13:10.241Z,23.73
2018-12-01T09:15:38.864Z,23.93
2018-12-01T09:18:07.501Z,24.57
2018-12-01T09:20:36.112Z,23.37
2018-12-01T09:23:04.839Z,23.37
2018-12-01T09:25:33.464Z,23.00
2018-12-01T09:28:02.104Z,23.20
2018-12-01T09:30:32.000Z,23.07
2018-12-01T09:33:00.622Z,23.70
2018-12-01T09:35:29.252Z,22.20
2018-12-01T09:37:57.880Z,23.03
2018-12-01T09:40:26.494Z,20.63
2018-12-01T09:42:55.152Z,21.03
2018-12-01T09:45:24.779Z,21.03
2018-12-01T09:47:54.490Z,20.27
2018-12-01T09:50:23.136Z,21.07
2018-12-01T09:52:52.851Z,21.67
2018-12-01T09:55:23.565Z,21.83
2018-12-01T09:57:52.557Z,21.93
2018-12-01T10:00:27.293Z,21.47
2018-12-01T10:02:55.997Z,19.97
2018-12-01T10:05:24.639Z,20.23
2018-12-01T10:07:53.291Z,20.53
2018-12-01T10:10:22.801Z,21.87
2018-12-01T10:12:53.352Z,18.47
2018-12-01T10:15:23.895Z,19.23
2018-12-01T10:17:51.748Z,19.03
2018-12-01T10:20:24.696Z,17.33
2018-12-01T10:22:53.407Z,13.53
2018-12-01T10:25:22.052Z,11.20
2018-12-01T10:27:50.697Z,11.37
2018-12-01T10:30:20.216Z,9.93
2018-12-01T10:32:49.382Z,9.23
2018-12-01T10:35:19.072Z,10.80
2018-12-01T10:37:50.223Z,10.17
2018-12-01T10:40:18.867Z,10.53
2018-12-01T10:42:47.508Z,10.17
2018-12-01T10:45:17.085Z,9.67
2018-12-01T10:47:46.036Z,8.77
2018-12-01T10:55:09.800Z,9.97
2018-12-01T10:57:38.480Z,8.83
2018-12-01T11:00:15.061Z,7.13
2018-12-01T11:02:49.064Z,7.17
2018-12-01T11:05:17.776Z,7.37
2018-12-01T11:07:46.393Z,7.90
2018-12-01T11:10:14.992Z,6.83
2018-12-01T11:12:43.632Z,7.13
2018-12-01T11:15:12.268Z,6.47
2018-12-01T11:17:40.894Z,6.87
2018-12-01T11:20:10.639Z,6.10
2018-12-01T11:22:39.452Z,5.27
2018-12-01T11:25:11.348Z,5.83
2018-12-01T11:27:40.202Z,5.97
2018-12-01T11:30:14.645Z,5.43
2018-12-01T11:32:43.519Z,5.07
2018-12-01T11:35:12.163Z,4.63
2018-12-01T11:37:40.867Z,4.60
2018-12-01T11:40:11.592Z,5.10
2018-12-01T11:42:40.278Z,4.90
2018-12-01T11:45:10.425Z,5.00
2018-12-01T11:47:39.120Z,4.60
2018-12-01T11:50:10.143Z,4.57
2018-12-01T11:52:38.767Z,3.90
2018-12-01T11:55:09.932Z,5.00
2018-12-01T11:57:38.588Z,3.80
2018-12-01T12:01:54.363Z,4.37
2018-12-01T12:04:23.035Z,3.80
2018-12-01T12:06:51.722Z,3.70
2018-12-01T12:09:20.934Z,4.50
2018-12-01T12:11:49.975Z,4.20
2018-12-01T12:14:18.640Z,3.17
2018-12-01T12:16:47.304Z,3.90
2018-12-01T12:19:15.932Z,3.33
2018-12-01T12:21:44.740Z,3.10
2018-12-01T12:24:13.352Z,3.60
2018-12-01T12:26:41.975Z,4.03
2018-12-01T12:29:10.596Z,3.70
2018-12-01T12:31:39.279Z,3.10
2018-12-01T12:34:07.891Z,3.10
2018-12-01T12:36:36.523Z,3.63
2018-12-01T12:39:06.888Z,3.27
2018-12-01T12:41:35.507Z,4.47
2018-12-01T12:44:04.107Z,3.63
2018-12-01T12:46:34.060Z,3.60
2018-12-01T12:49:01.625Z,3.40
2018-12-01T12:51:30.279Z,3.23
2018-12-01T12:53:58.857Z,4.33
2018-12-01T12:56:27.466Z,3.47
2018-12-01T12:58:56.068Z,2.83
2018-12-01T13:01:24.693Z,2.80
2018-12-01T13:03:53.323Z,4.33
2018-12-01T13:06:21.939Z,3.20
2018-12-01T13:08:50.530Z,3.90
2018-12-01T13:11:19.160Z,3.30
2018-12-01T13:13:48.396Z,3.83
2018-12-01T13:16:17.004Z,3.60
2018-12-01T13:18:45.901Z,3.80
2018-12-01T13:21:14.607Z,3.97
2018-12-01T13:23:43.211Z,3.93
2018-12-01T13:26:11.895Z,3.60
2018-12-01T13:28:40.925Z,2.93
2018-12-01T13:31:09.579Z,3.37
2018-12-01T13:33:38.238Z,4.37
2018-12-01T13:36:06.968Z,3.90
2018-12-01T13:38:35.596Z,3.77
2018-12-01T13:41:04.278Z,4.40
2018-12-01T13:43:32.958Z,4.43
2018-12-01T13:46:01.556Z,4.13
2018-12-01T13:48:30.214Z,3.50
2018-12-01T13:50:58.817Z,4.53
2018-12-01T13:53:27.458Z,4.37
2018-12-01T13:55:56.199Z,4.60
2018-12-01T13:58:24.860Z,4.57
2018-12-01T14:00:53.514Z,4.70
2018-12-01T14:03:22.114Z,4.93
2018-12-01T14:05:50.778Z,5.17
2018-12-01T14:08:19.419Z,4.07
2018-12-01T14:10:49.981Z,4.97
2018-12-01T14:13:18.621Z,4.47
2018-12-01T14:17:32.824Z,4.87
2018-12-01T14:20:03.021Z,4.73
2018-12-01T14:22:32.264Z,5.37
2018-12-01T14:25:02.067Z,4.87
2018-12-01T14:27:31.257Z,5.70
2018-12-01T14:30:00.523Z,5.73
2018-12-01T14:32:29.727Z,5.90
2018-12-01T14:34:58.401Z,6.40
2018-12-01T14:37:27.023Z,6.33
2018-12-01T14:39:55.691Z,5.80
2018-12-01T14:42:24.342Z,5.57
2018-12-01T14:44:52.974Z,5.50
2018-12-01T14:47:28.328Z,6.67
2018-12-01T14:49:56.928Z,5.93
2018-12-01T14:52:25.583Z,6.97
2018-12-01T14:54:54.211Z,7.37
2018-12-01T14:57:22.816Z,7.50
2018-12-01T14:59:51.571Z,7.70
2018-12-01T15:02:20.197Z,8.90
2018-12-01T15:04:48.800Z,7.87
2018-12-01T15:07:17.419Z,8.93
2018-12-01T15:09:46.001Z,8.40
2018-12-01T15:12:14.676Z,9.47
2018-12-01T15:14:43.363Z,8.70
2018-12-01T15:17:11.965Z,9.60
2018-12-01T15:19:40.659Z,10.57
2018-12-01T15:22:09.304Z,10.27
2018-12-01T15:24:38.017Z,11.40
2018-12-01T15:27:06.883Z,11.17
2018-12-01T15:29:35.552Z,10.60
2018-12-01T15:32:04.240Z,12.90
2018-12-01T15:34:32.892Z,12.60
2018-12-01T15:37:01.603Z,10.70
2018-12-01T15:39:30.312Z,12.03
2018-12-01T15:41:58.978Z,12.13
2018-12-01T15:44:28.063Z,11.80
2018-12-01T15:46:56.711Z,12.03
2018-12-01T15:49:25.329Z,13.43
2018-12-01T15:51:54.031Z,13.20
2018-12-01T15:54:22.711Z,12.83
2018-12-01T15:56:51.348Z,13.47
2018-12-01T15:59:19.999Z,12.20
2018-12-01T16:01:48.640Z,13.17
2018-12-01T16:04:17.334Z,11.87
2018-12-01T16:06:46.003Z,12.60
2018-12-01T16:09:14.615Z,11.40
2018-12-01T16:11:43.259Z,12.43
2018-12-01T16:14:11.912Z,11.97
2018-12-01T16:16:40.594Z,13.17
2018-12-01T16:19:09.299Z,11.67
2018-12-01T16:21:37.988Z,10.43
2018-12-01T16:24:06.652Z,11.47
2018-12-01T16:26:35.271Z,12.00
2018-12-01T16:29:03.896Z,12.07
2018-12-01T16:31:32.527Z,12.23
2018-12-01T16:34:01.111Z,11.83
2018-12-01T16:36:29.758Z,12.57
2018-12-01T16:38:58.424Z,12.90
2018-12-01T16:41:29.779Z,11.73
2018-12-01T16:43:58.419Z,12.70
2018-12-01T16:46:27.072Z,13.00
2018-12-01T16:48:55.725Z,13.17
2018-12-01T16:51:24.488Z,12.93
2018-12-01T16:53:53.107Z,14.50
2018-12-01T16:56:21.888Z,14.03
2018-12-01T16:58:50.548Z,14.03
2018-12-01T17:01:19.239Z,13.90
2018-12-01T17:03:47.891Z,14.03
2018-12-01T17:06:19.484Z,14.87
2018-12-01T17:08:48.568Z,13.63
2018-12-01T17:11:17.263Z,15.63
2018-12-01T17:13:45.981Z,17.10
2018-12-01T17:16:14.619Z,19.80
2018-12-01T17:18:43.240Z,16.83
2018-12-01T17:21:12.644Z,14.27
2018-12-01T17:23:41.251Z,14.00
2018-12-01T17:26:09.975Z,15.10
2018-12-01T17:28:38.589Z,13.93
2018-12-01T17:31:07.732Z,25.53
2018-12-01T17:33:36.616Z,18.63
2018-12-01T17:36:05.431Z,15.57
2018-12-01T17:38:34.082Z,15.17
2018-12-01T17:41:06.352Z,14.77
2018-12-01T17:43:47.478Z,15.13
2018-12-01T17:46:16.164Z,13.30
2018-12-01T17:48:44.904Z,13.10
2018-12-01T17:51:13.559Z,12.57
2018-12-01T17:53:44.016Z,14.20
2018-12-01T17:56:12.438Z,14.50
2018-12-01T17:58:41.079Z,14.40
2018-12-01T18:01:09.720Z,14.30
2018-12-01T18:03:38.339Z,14.37
2018-12-01T18:06:10.437Z,16.27
2018-12-01T18:08:39.119Z,16.00
2018-12-01T18:11:09.372Z,16.63
2018-12-01T18:13:38.468Z,16.00
2018-12-01T18:16:07.846Z,17.50
2018-12-01T18:18:36.921Z,15.70
2018-12-01T18:21:05.850Z,15.63
2018-12-01T18:23:34.939Z,15.70
2018-12-01T18:26:06.365Z,14.87
2018-12-01T18:28:36.839Z,16.53
2018-12-01T18:31:09.877Z,18.90
2018-12-01T18:33:40.088Z,16.90
2018-12-01T18:36:10.551Z,17.73
2018-12-01T18:38:39.634Z,15.80
2018-12-01T18:41:08.835Z,14.03
2018-12-01T18:43:37.435Z,14.67
2018-12-01T18:46:09.239Z,14.10
2018-12-01T18:48:37.858Z,14.17
2018-12-01T18:51:06.551Z,13.07
2018-12-01T18:53:35.203Z,14.53
2018-12-01T18:56:04.531Z,14.00
2018-12-01T18:58:33.159Z,13.77
2018-12-01T19:01:02.144Z,13.53
2018-12-01T19:03:32.375Z,14.93
2018-12-01T19:06:07.878Z,14.20
2018-12-01T19:08:36.581Z,14.80
2018-12-01T19:11:06.052Z,15.20
2018-12-01T19:13:34.685Z,13.40
2018-12-01T19:16:04.059Z,14.33
2018-12-01T19:18:32.705Z,13.47
2018-12-01T19:21:01.387Z,14.60
2018-12-01T19:23:29.984Z,14.33
2018-12-01T19:25:58.607Z,14.87
2018-12-01T19:28:27.205Z,14.97
2018-12-01T19:30:55.849Z,14.73
2018-12-01T19:33:24.894Z,15.97
2018-12-01T19:35:55.571Z,15.67
2018-12-01T19:38:27.301Z,15.23
2018-12-01T19:40:57.000Z,14.63
2018-12-01T19:43:25.621Z,16.80
2018-12-01T19:45:54.225Z,15.63
2018-12-01T19:48:22.852Z,16.37
2018-12-01T19:50:51.492Z,16.23
2018-12-01T19:53:20.133Z,16.33
2018-12-01T19:55:51.082Z,17.03
2018-12-01T19:58:23.100Z,15.77
2018-12-01T20:00:54.227Z,16.13
2018-12-01T20:03:24.300Z,16.03
2018-12-01T20:05:52.955Z,15.40
2018-12-01T20:08:22.079Z,16.53
2018-12-01T20:11:05.799Z,16.27
2018-12-01T20:13:39.064Z,16.10
2018-12-01T20:16:24.643Z,17.30
2018-12-01T20:18:53.970Z,15.77
2018-12-01T20:21:23.073Z,16.60
2018-12-01T20:23:51.685Z,17.27
2018-12-01T20:26:20.363Z,18.00
2018-12-01T20:28:49.067Z,15.80
2018-12-01T20:31:17.687Z,16.53
2018-12-01T20:33:46.395Z,17.40
2018-12-01T20:36:25.363Z,16.23
2018-12-01T20:39:28.284Z,16.40
2018-12-01T20:41:56.987Z,14.57
2018-12-01T20:44:25.587Z,16.70
2018-12-01T20:46:54.491Z,17.17
2018-12-01T20:49:23.098Z,18.87
2018-12-01T20:51:51.933Z,16.77
2018-12-01T20:54:36.313Z,16.87
2018-12-01T20:57:18.047Z,17.03
2018-12-01T20:59:46.843Z,17.93
2018-12-01T21:02:15.451Z,17.27
2018-12-01T21:04:44.091Z,17.50
2018-12-01T21:07:12.719Z,18.60
2018-12-01T21:09:41.333Z,18.73
2018-12-01T21:12:11.560Z,17.73
2018-12-01T21:14:40.213Z,18.13
2018-12-01T21:17:08.855Z,18.80
2018-12-01T21:19:37.455Z,18.90
2018-12-01T21:22:07.027Z,18.73
2018-12-01T21:24:35.655Z,18.47
2018-12-01T21:27:04.377Z,19.50
2018-12-01T21:29:33.021Z,19.50
2018-12-01T21:32:01.643Z,19.00
2018-12-01T21:34:30.267Z,19.80
2018-12-01T21:36:58.899Z,18.73
2018-12-01T21:39:27.496Z,19.30
2018-12-01T21:41:56.131Z,19.10
2018-12-01T21:44:24.716Z,19.10
2018-12-01T21:46:53.339Z,19.57
2018-12-01T21:49:21.957Z,18.77
2018-12-01T21:51:50.591Z,19.50
2018-12-01T21:54:19.333Z,20.33
2018-12-01T21:56:47.935Z,20.87
2018-12-01T21:59:16.554Z,19.27
2018-12-01T22:01:45.159Z,19.80
2018-12-01T22:04:13.799Z,19.27
2018-12-01T22:06:42.436Z,19.40
2018-12-01T22:09:11.062Z,18.30
2018-12-01T22:11:39.695Z,19.90
2018-12-01T22:14:08.306Z,17.43
2018-12-01T22:16:36.931Z,17.67
2018-12-01T22:19:05.876Z,18.03
2018-12-01T22:21:34.519Z,16.53
2018-12-01T22:24:04.302Z,17.83
2018-12-01T22:26:32.913Z,18.13
2018-12-01T22:29:01.522Z,16.80
2018-12-01T22:31:30.139Z,16.73
2018-12-01T22:33:58.732Z,16.63
2018-12-01T22:36:27.347Z,17.47
2018-12-01T22:38:55.959Z,18.43
2018-12-01T22:41:24.562Z,18.23
2018-12-01T22:43:53.164Z,17.63
2018-12-01T22:46:21.789Z,17.57
2018-12-01T22:48:50.438Z,17.13
2018-12-01T22:51:19.060Z,17.67
2018-12-01T22:53:47.667Z,17.60
2018-12-01T22:56:16.268Z,17.10
2018-12-01T22:58:44.900Z,17.37
2018-12-01T23:01:13.528Z,17.70
2018-12-01T23:03:42.848Z,17.87
2018-12-01T23:06:11.496Z,17.60
2018-12-01T23:08:40.095Z,17.40
2018-12-01T23:11:08.735Z,17.30
2018-12-01T23:13:37.335Z,17.00
2018-12-01T23:16:06.087Z,17.53
2018-12-01T23:18:34.689Z,17.77
2018-12-01T23:21:03.479Z,18.83
2018-12-01T23:23:32.070Z,18.17
2018-12-01T23:26:00.675Z,15.97
2018-12-01T23:28:29.268Z,16.60
2018-12-01T23:30:57.884Z,20.17
2018-12-01T23:33:27.796Z,18.53
2018-12-01T23:35:56.488Z,17.27
2018-12-01T23:38:25.100Z,17.03
2018-12-01T23:40:53.741Z,18.37
2018-12-01T23:43:22.344Z,17.00
2018-12-01T23:45:50.969Z,16.57
2018-12-01T23:48:19.554Z,15.87
2018-12-01T23:50:54.863Z,16.43
2018-12-01T23:53:24.368Z,15.33
2018-12-01T23:55:53.188Z,15.07
2018-12-01T23:58:21.780Z,15.00
